KCAG

Craig-Moffat Airport

Craig, Colorado, USA
METAR KCAG 191753Z AUTO VRB03KT 10SM CLR 26/02 A3000 RMK AO2 SLP089 T02560017 10256 20033 58014
Observed Flight Rules
Sep-19 @ 17:53 UTC (55 minutes ago) Visual Flight Rules
Wind Visibility Clouds
Variable at 3 knots 10 miles
  • Clear skies
Temperatures Readings
Current 26°C / 79°F
Dewpoint 2°C / 36°F
Humidity 21%
Altimeter 30" Hg
Pressure 1008.9 hPa
Elevation 1887
METAR KCAG 191753Z AUTO VRB03KT 10SM CLR 26/02 A3000 RMK AO2 SLP089 T02560017 10256 20033 58014
Observed Flight Rules
Sep-19 @ 17:53 UTC
(55 minutes ago)
VFR
Wind Visibility
Variable at 3 knots 10 miles
Clouds
  • Clear skies
Temperature Dewpoint
26°C / 79°F 2°C / 36°F
Humidity Altimeter Pressure
21% 30" Hg 1008.9 hPa